Time;durP1;ratioP1;P1;durP2;ratioP2;P2;SDS_P1;SDS_P2;PMS_P1;PMS_P2;Temp;Humidity;BMP_temperature;BMP_pressure;BME280_temperature;BME280_humidity;BME280_pressure;Samples;Min_cycle;Max_cycle;Signal;HPM_P1;HPM_P2
2022/12/26 00:01:49;;;;;;;;;;;10.50;99.90;;;;;;6247554;23;19907;-72
2022/12/26 00:04:15;;;;;;;;;;;10.50;99.90;;;;;;6247642;23;19926;-73
2022/12/26 00:06:41;;;;;;;;;;;10.50;99.90;;;;;;6247474;23;19903;-74
2022/12/26 00:09:06;;;;;;;;;;;10.60;99.90;;;;;;6247755;23;20238;-72
2022/12/26 00:11:32;;;;;;;;;;;10.50;99.90;;;;;;6247430;23;20034;-74
2022/12/26 00:14:04;;;;;;;;;;;10.50;99.90;;;;;;6247748;23;19907;-72
2022/12/26 00:16:29;;;;;;;;;;;10.50;99.90;;;;;;6220582;23;19899;-72
2022/12/26 00:18:55;;;;;;;;;;;10.60;99.90;;;;;;6247381;23;19953;-72
2022/12/26 00:21:22;;;;;;;;;;;10.60;99.90;;;;;;6247728;23;19904;-72
2022/12/26 00:23:48;;;;;;;;;;;10.50;99.90;;;;;;6247720;23;20274;-72
2022/12/26 00:26:14;;;;;;;;;;;10.50;99.90;;;;;;6247521;22;19971;-72
2022/12/26 00:28:40;;;;;;;;;;;10.60;99.90;;;;;;6247162;23;19950;-72
2022/12/26 00:31:07;;;;;;;;;;;10.60;99.90;;;;;;6247626;23;19899;-72
2022/12/26 00:33:34;;;;;;;;;;;10.50;99.90;;;;;;6246687;22;19911;-75
2022/12/26 00:36:01;;;;;;;;;;;10.50;99.90;;;;;;6247574;23;20278;-71
2022/12/26 00:38:26;;;;;;;;;;;10.50;99.90;;;;;;6220284;23;20277;-73
2022/12/26 00:40:52;;;;;;;;;;;10.50;99.90;;;;;;6247147;23;19899;-74
2022/12/26 00:43:17;;;;;;;;;;;10.50;99.90;;;;;;6247109;23;19906;-73
2022/12/26 00:45:43;;;;;;;;;;;10.50;99.90;;;;;;6247419;23;19900;-72
2022/12/26 00:48:09;;;;;;;;;;;10.50;99.90;;;;;;6247061;23;19906;-72
2022/12/26 00:50:34;;;;;;;;;;;10.50;99.90;;;;;;6247306;23;19990;-73
2022/12/26 00:53:00;;;;;;;;;;;10.60;99.90;;;;;;6247010;23;19906;-75
2022/12/26 00:55:25;;;;;;;;;;;10.60;99.90;;;;;;6247320;23;20302;-73
2022/12/26 00:57:51;;;;;;;;;;;10.60;99.90;;;;;;6246978;23;19909;-72
2022/12/26 01:00:16;;;;;;;;;;;10.60;99.90;;;;;;6220177;23;19899;-73
2022/12/26 01:02:42;;;;;;;;;;;10.50;99.90;;;;;;6246981;23;20340;-72
2022/12/26 01:05:09;;;;;;;;;;;10.50;99.90;;;;;;6247245;23;19921;-71
2022/12/26 01:07:35;;;;;;;;;;;10.50;99.90;;;;;;6246891;23;19900;-73
2022/12/26 01:10:02;;;;;;;;;;;10.50;99.90;;;;;;6246811;23;19914;-73
2022/12/26 01:12:27;;;;;;;;;;;10.40;99.90;;;;;;6247165;23;20033;-72
2022/12/26 01:14:56;;;;;;;;;;;10.40;99.90;;;;;;6246483;23;19931;-71
2022/12/26 01:17:22;;;;;;;;;;;10.40;99.90;;;;;;6246808;23;19900;-72
2022/12/26 01:19:47;;;;;;;;;;;10.40;99.90;;;;;;6247454;23;20346;-73
2022/12/26 01:22:13;;;;;;;;;;;10.50;99.90;;;;;;6246749;23;19906;-72
2022/12/26 01:24:38;;;;;;;;;;;10.40;99.90;;;;;;6246690;22;19899;-72
2022/12/26 01:27:04;;;;;;;;;;;10.40;99.90;;;;;;6246753;23;19900;-72
2022/12/26 01:29:29;;;;;;;;;;;10.40;99.90;;;;;;6246991;23;19903;-72
2022/12/26 01:31:55;;;;;;;;;;;10.50;99.90;;;;;;6246487;22;19911;-72
2022/12/26 01:34:20;;;;;;;;;;;10.50;99.90;;;;;;6246723;23;19958;-73
2022/12/26 01:36:46;;;;;;;;;;;10.50;99.90;;;;;;6247004;23;19900;-72
2022/12/26 01:39:11;;;;;;;;;;;10.50;99.90;;;;;;6246602;23;19978;-73
2022/12/26 01:41:37;;;;;;;;;;;10.60;99.90;;;;;;6246318;23;19899;-72
2022/12/26 01:44:04;;;;;;;;;;;10.60;99.90;;;;;;6246994;23;19906;-72
2022/12/26 01:46:32;;;;;;;;;;;10.70;99.90;;;;;;6246607;23;19906;-73
2022/12/26 01:49:00;;;;;;;;;;;10.70;99.90;;;;;;6246501;23;19903;-73
2022/12/26 01:51:28;;;;;;;;;;;10.70;99.90;;;;;;6247282;23;19900;-72
2022/12/26 01:53:55;;;;;;;;;;;10.70;99.90;;;;;;6246507;23;19900;-73
2022/12/26 01:56:23;;;;;;;;;;;10.50;99.90;;;;;;6247167;23;19899;-74
2022/12/26 01:58:52;;;;;;;;;;;10.50;99.90;;;;;;6246880;23;19949;-73
2022/12/26 02:01:18;;;;;;;;;;;10.50;99.90;;;;;;6246483;23;19899;-73
2022/12/26 02:06:29;;;;;;;;;;;10.40;99.90;;;;;;6246546;23;19950;-73
2022/12/26 02:08:55;;;;;;;;;;;10.30;99.90;;;;;;6246363;23;19903;-73
2022/12/26 02:11:22;;;;;;;;;;;10.30;99.90;;;;;;6246441;23;19900;-71
2022/12/26 02:13:48;;;;;;;;;;;10.30;99.90;;;;;;6246763;23;20307;-72
2022/12/26 02:16:15;;;;;;;;;;;10.20;99.90;;;;;;6246429;23;19927;-72
2022/12/26 02:18:41;;;;;;;;;;;10.20;99.90;;;;;;6246398;23;19910;-74
2022/12/26 02:21:06;;;;;;;;;;;10.10;99.90;;;;;;6247074;23;19899;-74
2022/12/26 02:23:46;;;;;;;;;;;10.20;99.90;;;;;;6246413;23;20246;-74
2022/12/26 02:26:30;;;;;;;;;;;10.10;99.90;;;;;;6247312;22;19899;-73
2022/12/26 02:29:11;;;;;;;;;;;10.00;99.90;;;;;;6248744;23;20372;-72
2022/12/26 02:31:49;;;;;;;;;;;10.10;99.90;;;;;;6248223;23;20789;-73
2022/12/26 02:34:32;;;;;;;;;;;10.00;99.90;;;;;;6249143;23;19900;-72
2022/12/26 02:37:16;;;;;;;;;;;10.00;99.90;;;;;;6248330;23;19906;-73
2022/12/26 02:40:00;;;;;;;;;;;10.00;99.90;;;;;;6249097;23;19910;-73
2022/12/26 02:42:35;;;;;;;;;;;9.90;99.90;;;;;;6248285;23;19899;-74
2022/12/26 02:47:47;;;;;;;;;;;10.10;99.90;;;;;;6248338;23;19907;-73
2022/12/26 03:13:12;;;;;;;;;;;10.40;99.90;;;;;;6248096;23;19942;-74
2022/12/26 03:18:36;;;;;;;;;;;10.40;99.90;;;;;;6248050;23;19907;-71
2022/12/26 03:21:02;;;;;;;;;;;10.50;99.90;;;;;;6248320;23;20308;-72
2022/12/26 03:23:29;;;;;;;;;;;10.40;99.90;;;;;;6247889;23;19926;-72
2022/12/26 03:28:40;;;;;;;;;;;10.60;99.90;;;;;;6247881;23;19950;-73
2022/12/26 03:31:10;;;;;;;;;;;10.60;99.90;;;;;;6248579;23;19903;-73
2022/12/26 03:36:28;;;;;;;;;;;10.70;99.90;;;;;;6247534;23;19953;-71
2022/12/26 03:39:12;;;;;;;;;;;10.80;99.90;;;;;;6248079;23;19906;-74
2022/12/26 04:46:27;;;;;;;;;;;10.00;99.90;;;;;;6247211;23;19907;-74
2022/12/26 04:51:37;;;;;;;;;;;10.10;99.90;;;;;;6246791;23;19981;-73
2022/12/26 04:54:03;;;;;;;;;;;10.00;99.90;;;;;;6247013;23;20322;-72
2022/12/26 04:56:29;;;;;;;;;;;9.90;99.90;;;;;;6247676;23;19903;-73
2022/12/26 04:58:55;;;;;;;;;;;10.00;99.90;;;;;;6246966;23;20356;-72
2022/12/26 05:09:35;;;;;;;;;;;9.90;99.90;;;;;;6246888;23;19910;-73
2022/12/26 05:12:02;;;;;;;;;;;10.10;99.90;;;;;;6219996;23;19903;-72
2022/12/26 05:14:30;;;;;;;;;;;10.00;99.90;;;;;;6247231;23;19900;-72
2022/12/26 05:30:45;;;;;;;;;;;9.70;99.90;;;;;;6246699;23;19958;-73
2022/12/26 05:35:55;;;;;;;;;;;9.50;99.90;;;;;;6246403;23;19973;-73
2022/12/26 05:38:20;;;;;;;;;;;9.50;99.90;;;;;;6247018;23;20337;-73
2022/12/26 05:40:46;;;;;;;;;;;9.60;99.90;;;;;;6246643;23;19903;-73
2022/12/26 05:43:11;;;;;;;;;;;9.50;99.90;;;;;;6246659;23;19899;-73
2022/12/26 05:45:37;;;;;;;;;;;9.40;99.90;;;;;;6246940;23;19906;-73
2022/12/26 05:48:02;;;;;;;;;;;9.30;99.90;;;;;;6246541;23;20322;-72
2022/12/26 05:50:28;;;;;;;;;;;9.30;99.90;;;;;;6247203;23;19914;-72
2022/12/26 05:52:57;;;;;;;;;;;9.20;99.90;;;;;;6246591;23;19900;-73
2022/12/26 05:55:23;;;;;;;;;;;9.30;99.90;;;;;;6247190;23;19899;-73
2022/12/26 05:57:49;;;;;;;;;;;9.40;99.90;;;;;;6246566;23;19961;-71
2022/12/26 06:00:14;;;;;;;;;;;9.40;99.90;;;;;;6246682;23;19899;-72
2022/12/26 06:02:40;;;;;;;;;;;9.50;99.90;;;;;;6246869;23;19900;-73
2022/12/26 06:05:06;;;;;;;;;;;9.40;99.90;;;;;;6219633;23;19900;-73
2022/12/26 06:07:31;;;;;;;;;;;9.30;99.90;;;;;;6246832;23;19926;-73
2022/12/26 06:09:57;;;;;;;;;;;9.30;99.90;;;;;;6246374;23;19911;-73
2022/12/26 06:12:23;;;;;;;;;;;9.30;99.90;;;;;;6246878;23;19970;-73
2022/12/26 06:14:48;;;;;;;;;;;9.40;99.90;;;;;;6246776;23;19903;-73
2022/12/26 06:17:14;;;;;;;;;;;9.50;99.90;;;;;;6246466;23;19974;-72
2022/12/26 06:19:39;;;;;;;;;;;9.40;99.90;;;;;;6247180;23;20372;-72
2022/12/26 06:22:05;;;;;;;;;;;9.50;99.90;;;;;;6246421;23;19900;-72
2022/12/26 06:24:30;;;;;;;;;;;9.50;99.90;;;;;;6246700;22;19904;-73
2022/12/26 06:26:56;;;;;;;;;;;9.50;99.90;;;;;;6246377;23;20211;-73
2022/12/26 06:29:21;;;;;;;;;;;9.50;99.90;;;;;;6246636;23;19904;-73
2022/12/26 06:31:47;;;;;;;;;;;9.60;99.90;;;;;;6246166;23;19914;-72
2022/12/26 06:34:12;;;;;;;;;;;9.50;99.90;;;;;;6246720;23;19958;-73
2022/12/26 06:36:38;;;;;;;;;;;9.60;99.90;;;;;;6246395;23;20322;-73
2022/12/26 06:39:03;;;;;;;;;;;9.60;99.90;;;;;;6246742;23;19899;-71
2022/12/26 06:41:29;;;;;;;;;;;9.60;99.90;;;;;;6246334;23;19923;-73
2022/12/26 06:43:54;;;;;;;;;;;9.70;99.90;;;;;;6246679;23;19904;-73
2022/12/26 06:46:21;;;;;;;;;;;9.70;99.90;;;;;;6246317;23;20237;-74
2022/12/26 06:48:47;;;;;;;;;;;9.80;99.90;;;;;;6219343;23;19900;-73
2022/12/26 06:51:20;;;;;;;;;;;9.80;99.90;;;;;;6246307;23;19973;-72
2022/12/26 06:53:47;;;;;;;;;;;9.80;99.90;;;;;;6246627;23;19900;-73
2022/12/26 06:56:13;;;;;;;;;;;9.80;99.90;;;;;;6246244;23;19903;-73
2022/12/26 06:58:39;;;;;;;;;;;9.80;99.90;;;;;;6219446;23;19958;-73
2022/12/26 07:01:09;;;;;;;;;;;9.90;99.90;;;;;;6246564;23;19900;-74
2022/12/26 07:03:35;;;;;;;;;;;9.90;99.90;;;;;;6246198;23;19899;-73
2022/12/26 07:06:21;;;;;;;;;;;10.00;99.90;;;;;;6246903;23;20291;-73
2022/12/26 07:08:46;;;;;;;;;;;10.10;99.90;;;;;;6218334;23;20310;-73
2022/12/26 07:11:15;;;;;;;;;;;10.10;99.90;;;;;;6246246;23;19922;-73
2022/12/26 07:13:42;;;;;;;;;;;10.10;99.90;;;;;;6247338;23;19903;-73
2022/12/26 07:16:08;;;;;;;;;;;10.20;99.90;;;;;;6248329;23;19899;-74
2022/12/26 07:18:33;;;;;;;;;;;10.20;99.90;;;;;;6248030;23;19907;-72
2022/12/26 07:20:59;;;;;;;;;;;10.20;99.90;;;;;;6248311;23;19900;-72
2022/12/26 07:23:24;;;;;;;;;;;10.20;99.90;;;;;;6247916;23;19987;-71
2022/12/26 07:25:50;;;;;;;;;;;10.10;99.90;;;;;;6247946;22;20241;-73
2022/12/26 07:28:15;;;;;;;;;;;10.20;99.90;;;;;;6247916;23;19899;-73
2022/12/26 07:30:48;;;;;;;;;;;10.20;99.90;;;;;;6248142;23;19994;-72
2022/12/26 07:33:14;;;;;;;;;;;10.30;99.90;;;;;;6247651;23;19911;-72
2022/12/26 07:35:39;;;;;;;;;;;10.40;99.90;;;;;;6247888;23;20233;-72
2022/12/26 07:38:05;;;;;;;;;;;10.40;99.90;;;;;;6247828;23;19957;-74
2022/12/26 07:40:31;;;;;;;;;;;10.40;99.90;;;;;;6248123;23;19903;-72
2022/12/26 07:42:56;;;;;;;;;;;10.50;99.90;;;;;;6247820;23;19899;-73
2022/12/26 07:45:22;;;;;;;;;;;10.40;99.90;;;;;;6247727;23;19907;-72
2022/12/26 07:47:47;;;;;;;;;;;10.40;99.90;;;;;;6247709;23;19899;-73
2022/12/26 07:50:13;;;;;;;;;;;10.30;99.90;;;;;;6247896;23;19943;-73
2022/12/26 07:52:38;;;;;;;;;;;10.20;99.90;;;;;;6247669;23;19983;-74
2022/12/26 07:55:04;;;;;;;;;;;10.10;99.90;;;;;;6247989;23;19907;-73
2022/12/26 07:57:29;;;;;;;;;;;10.10;99.90;;;;;;6247613;23;20281;-74
2022/12/26 07:59:55;;;;;;;;;;;10.00;99.90;;;;;;6248023;23;19906;-71
2022/12/26 08:02:20;;;;;;;;;;;9.90;99.90;;;;;;6247605;23;19965;-73
2022/12/26 08:04:46;;;;;;;;;;;9.90;99.90;;;;;;6247916;23;19900;-72
2022/12/26 08:07:12;;;;;;;;;;;9.90;99.90;;;;;;6247556;23;19961;-72
2022/12/26 08:09:41;;;;;;;;;;;9.80;99.90;;;;;;6247751;23;19903;-71
2022/12/26 08:12:07;;;;;;;;;;;9.70;99.90;;;;;;6247517;23;20022;-71
2022/12/26 08:14:33;;;;;;;;;;;9.60;99.90;;;;;;6247486;23;19900;-73
2022/12/26 08:16:58;;;;;;;;;;;9.50;99.90;;;;;;6220587;23;19906;-72
2022/12/26 08:19:24;;;;;;;;;;;9.40;99.90;;;;;;6247391;23;19899;-73
2022/12/26 08:21:49;;;;;;;;;;;9.30;99.90;;;;;;6247714;23;19933;-72
2022/12/26 08:24:15;;;;;;;;;;;9.30;99.90;;;;;;6247350;22;19900;-71
2022/12/26 08:26:40;;;;;;;;;;;9.30;99.90;;;;;;6220179;23;19918;-73
2022/12/26 08:29:06;;;;;;;;;;;9.30;99.90;;;;;;6247615;23;20301;-71
2022/12/26 08:31:31;;;;;;;;;;;9.30;99.90;;;;;;6246988;23;19903;-71
2022/12/26 08:33:57;;;;;;;;;;;9.30;99.90;;;;;;6220106;23;20285;-74
2022/12/26 08:36:22;;;;;;;;;;;9.30;99.90;;;;;;6247628;23;19922;-73
2022/12/26 08:38:48;;;;;;;;;;;9.20;99.90;;;;;;6247249;23;19899;-71
2022/12/26 08:41:16;;;;;;;;;;;9.10;99.90;;;;;;6247493;23;20234;-72
2022/12/26 08:43:41;;;;;;;;;;;9.10;99.90;;;;;;6247176;23;19904;-73
2022/12/26 08:46:08;;;;;;;;;;;9.20;99.90;;;;;;6247850;23;19974;-73
2022/12/26 08:48:34;;;;;;;;;;;9.30;99.90;;;;;;6247126;23;19931;-70
2022/12/26 08:51:01;;;;;;;;;;;9.40;99.90;;;;;;6246989;23;20238;-73
2022/12/26 08:53:27;;;;;;;;;;;9.50;99.90;;;;;;6247405;23;19899;-72
2022/12/26 08:55:53;;;;;;;;;;;9.60;99.90;;;;;;6247024;23;19906;-74
2022/12/26 08:58:19;;;;;;;;;;;9.50;99.90;;;;;;6247177;23;19974;-72
2022/12/26 09:00:45;;;;;;;;;;;9.50;99.90;;;;;;6247365;23;19906;-73
2022/12/26 09:03:11;;;;;;;;;;;9.60;99.90;;;;;;6246935;23;20439;-71
2022/12/26 09:05:36;;;;;;;;;;;9.60;99.90;;;;;;6246992;23;20229;-72
2022/12/26 09:08:02;;;;;;;;;;;9.50;99.90;;;;;;6247207;23;19899;-73
2022/12/26 09:10:27;;;;;;;;;;;9.60;99.90;;;;;;6246679;23;19926;-73
2022/12/26 09:12:53;;;;;;;;;;;9.60;99.90;;;;;;6247187;23;19974;-72
2022/12/26 09:15:18;;;;;;;;;;;9.60;99.90;;;;;;6246820;23;19899;-73
2022/12/26 09:17:44;;;;;;;;;;;9.60;99.90;;;;;;6247541;23;20310;-73
2022/12/26 09:20:09;;;;;;;;;;;9.40;99.90;;;;;;6246805;23;19934;-72
2022/12/26 09:22:50;;;;;;;;;;;9.30;99.90;;;;;;6246732;23;19974;-73
2022/12/26 09:25:19;;;;;;;;;;;9.40;99.90;;;;;;6247372;22;19906;-73
2022/12/26 09:27:45;;;;;;;;;;;9.70;99.90;;;;;;6246714;23;20238;-72
2022/12/26 09:30:11;;;;;;;;;;;10.10;99.90;;;;;;6246611;23;19911;-72
2022/12/26 09:32:36;;;;;;;;;;;10.50;99.90;;;;;;6246462;23;19918;-73
2022/12/26 09:35:02;;;;;;;;;;;11.00;99.90;;;;;;6246798;23;19906;-72
2022/12/26 09:37:28;;;;;;;;;;;12.80;99.90;;;;;;6246533;23;20215;-73
2022/12/26 09:39:53;;;;;;;;;;;15.80;99.90;;;;;;6246669;23;20322;-73
2022/12/26 09:42:31;;;;;;;;;;;17.60;99.90;;;;;;6246596;23;19978;-72
2022/12/26 09:44:57;;;;;;;;;;;16.40;99.90;;;;;;6247038;23;19978;-73
2022/12/26 09:47:28;;;;;;;;;;;14.60;99.90;;;;;;6246587;23;19900;-72
2022/12/26 09:49:55;;;;;;;;;;;15.80;99.90;;;;;;6247249;23;19903;-74
2022/12/26 09:52:23;;;;;;;;;;;17.50;99.90;;;;;;6246647;23;19899;-71
2022/12/26 09:55:11;;;;;;;;;;;18.60;99.90;;;;;;6246967;23;19899;-74
2022/12/26 09:57:46;;;;;;;;;;;19.40;99.90;;;;;;6176489;23;19906;-74
2022/12/26 10:00:17;;;;;;;;;;;19.70;99.90;;;;;;6246491;23;19910;-74
2022/12/26 10:02:45;;;;;;;;;;;20.10;99.90;;;;;;6247236;23;19907;-72
2022/12/26 10:05:12;;;;;;;;;;;20.80;99.90;;;;;;6246460;23;19900;-71
2022/12/26 10:07:41;;;;;;;;;;;21.30;99.90;;;;;;6246473;23;19975;-72
2022/12/26 10:10:08;;;;;;;;;;;21.20;99.90;;;;;;6246369;23;19904;-73
2022/12/26 10:12:34;;;;;;;;;;;21.00;99.90;;;;;;6219616;23;20318;-73
2022/12/26 10:15:11;;;;;;;;;;;21.00;99.90;;;;;;6246785;23;19907;-73
2022/12/26 10:18:02;;;;;;;;;;;20.80;99.90;;;;;;6246814;23;19900;-73
2022/12/26 10:20:32;;;;;;;;;;;20.80;99.90;;;;;;6246836;23;20337;-72
2022/12/26 10:23:17;;;;;;;;;;;20.80;99.90;;;;;;6246496;23;19907;-71
2022/12/26 10:26:01;;;;;;;;;;;21.10;99.90;;;;;;6247074;22;19926;-73
2022/12/26 10:28:39;;;;;;;;;;;21.50;99.90;;;;;;6246403;23;19899;-73
2022/12/26 10:31:24;;;;;;;;;;;21.70;99.90;;;;;;6246713;23;19910;-73
2022/12/26 10:33:57;;;;;;;;;;;21.80;99.90;;;;;;6245239;23;19912;-72
2022/12/26 10:36:29;;;;;;;;;;;22.00;99.90;;;;;;6247121;23;19899;-72
2022/12/26 10:38:57;;;;;;;;;;;20.70;99.90;;;;;;6246349;23;19900;-72
2022/12/26 10:41:30;;;;;;;;;;;18.30;99.90;;;;;;6246338;23;19907;-72
2022/12/26 10:43:55;;;;;;;;;;;18.00;99.90;;;;;;6246345;23;19907;-73
2022/12/26 10:46:33;;;;;;;;;;;19.40;99.90;;;;;;6246516;23;19904;-72
2022/12/26 10:48:59;;;;;;;;;;;19.10;99.90;;;;;;6248936;23;19900;-73
2022/12/26 10:51:25;;;;;;;;;;;19.30;99.90;;;;;;6248687;23;19899;-72
2022/12/26 10:53:52;;;;;;;;;;;20.40;99.90;;;;;;6248929;23;19934;-71
2022/12/26 10:56:18;;;;;;;;;;;18.80;99.90;;;;;;6248184;23;19906;-72
2022/12/26 10:58:44;;;;;;;;;;;18.00;99.90;;;;;;6248255;23;19906;-72
2022/12/26 11:01:30;;;;;;;;;;;17.50;99.90;;;;;;6248510;23;19956;-73
2022/12/26 11:03:56;;;;;;;;;;;18.80;99.90;;;;;;6248152;23;19899;-73
2022/12/26 11:06:23;;;;;;;;;;;18.00;99.90;;;;;;6248129;23;20215;-72
2022/12/26 11:08:49;;;;;;;;;;;16.60;99.90;;;;;;6248016;23;19906;-73
2022/12/26 11:11:25;;;;;;;;;;;15.30;99.90;;;;;;6248042;23;19899;-73
2022/12/26 11:13:53;;;;;;;;;;;14.70;99.90;;;;;;6248047;23;19900;-73
2022/12/26 11:16:29;;;;;;;;;;;16.10;99.90;;;;;;6248357;23;20307;-74
2022/12/26 11:18:55;;;;;;;;;;;16.10;99.90;;;;;;6247982;23;19900;-72
2022/12/26 11:21:27;;;;;;;;;;;16.00;99.90;;;;;;6248302;23;19955;-72
2022/12/26 11:24:08;;;;;;;;;;;16.50;99.90;;;;;;6247904;22;19900;-73
2022/12/26 11:26:34;;;;;;;;;;;15.10;99.90;;;;;;6248603;23;19899;-74
2022/12/26 11:29:19;;;;;;;;;;;13.80;99.90;;;;;;6247811;23;19899;-72
2022/12/26 11:31:58;;;;;;;;;;;13.30;99.90;;;;;;6247639;23;20250;-72
2022/12/26 11:34:31;;;;;;;;;;;13.00;99.90;;;;;;6248254;23;19900;-73
2022/12/26 11:36:56;;;;;;;;;;;12.90;99.90;;;;;;6247911;23;20254;-72
2022/12/26 11:39:35;;;;;;;;;;;13.10;99.90;;;;;;6247765;23;19906;-72
2022/12/26 11:42:08;;;;;;;;;;;13.30;99.90;;;;;;6248490;23;19900;-73
2022/12/26 11:44:35;;;;;;;;;;;13.70;99.90;;;;;;6247753;23;19900;-72
2022/12/26 11:47:07;;;;;;;;;;;14.30;99.90;;;;;;6248090;23;20313;-74
2022/12/26 11:49:35;;;;;;;;;;;14.90;99.90;;;;;;6247626;23;19911;-72
2022/12/26 11:52:02;;;;;;;;;;;15.20;99.90;;;;;;6247660;23;20322;-74
2022/12/26 11:54:45;;;;;;;;;;;15.10;99.90;;;;;;6247663;23;20284;-72
2022/12/26 11:57:14;;;;;;;;;;;14.60;99.90;;;;;;6247972;23;19900;-72
2022/12/26 11:59:39;;;;;;;;;;;13.80;99.90;;;;;;6247143;23;19979;-73
2022/12/26 12:02:20;;;;;;;;;;;13.10;99.90;;;;;;6247609;23;19927;-72
2022/12/26 12:04:46;;;;;;;;;;;12.60;99.90;;;;;;6247555;23;19914;-73
2022/12/26 12:07:15;;;;;;;;;;;12.30;99.90;;;;;;6247490;23;20389;-74
2022/12/26 12:09:43;;;;;;;;;;;12.00;99.90;;;;;;6247751;23;19910;-72
2022/12/26 12:12:17;;;;;;;;;;;11.70;99.90;;;;;;6247436;23;19903;-73
2022/12/26 12:14:42;;;;;;;;;;;11.60;99.90;;;;;;6247837;23;19946;-72
2022/12/26 12:17:20;;;;;;;;;;;11.80;99.90;;;;;;6247375;23;19986;-71
2022/12/26 12:19:58;;;;;;;;;;;12.10;99.90;;;;;;6247458;23;19906;-73
2022/12/26 12:22:35;;;;;;;;;;;12.30;99.90;;;;;;6248100;23;20026;-72
2022/12/26 12:25:06;;;;;;;;;;;12.50;99.90;;;;;;6247734;22;19946;-73
2022/12/26 12:27:38;;;;;;;;;;;12.60;99.90;;;;;;6247337;23;19910;-71
2022/12/26 12:30:07;;;;;;;;;;;12.70;99.90;;;;;;6220314;23;20313;-72
2022/12/26 12:32:59;;;;;;;;;;;12.80;99.90;;;;;;6247264;23;19911;-73
2022/12/26 12:35:30;;;;;;;;;;;12.90;99.90;;;;;;6189924;23;19986;-73
2022/12/26 12:38:11;;;;;;;;;;;12.50;99.90;;;;;;6220013;23;19900;-73
2022/12/26 12:40:44;;;;;;;;;;;12.30;99.90;;;;;;6247159;23;19906;-74
2022/12/26 12:43:19;;;;;;;;;;;12.00;99.90;;;;;;6247906;23;19911;-73
2022/12/26 12:45:57;;;;;;;;;;;11.70;99.90;;;;;;6247083;23;20322;-72
2022/12/26 12:48:41;;;;;;;;;;;11.50;99.90;;;;;;6247503;23;19899;-73
2022/12/26 12:51:10;;;;;;;;;;;11.50;99.90;;;;;;6246948;23;20337;-74
2022/12/26 12:53:35;;;;;;;;;;;11.60;99.90;;;;;;6247093;23;19900;-72
2022/12/26 12:56:16;;;;;;;;;;;11.50;99.90;;;;;;6247401;23;19935;-71
2022/12/26 12:58:57;;;;;;;;;;;11.40;99.90;;;;;;6247009;23;19930;-72
2022/12/26 13:01:25;;;;;;;;;;;11.50;99.90;;;;;;6247418;23;19946;-72
2022/12/26 13:03:54;;;;;;;;;;;11.60;99.90;;;;;;6247009;23;19908;-74
2022/12/26 13:06:24;;;;;;;;;;;11.70;99.90;;;;;;6246954;23;19900;-73
2022/12/26 13:09:04;;;;;;;;;;;11.90;99.90;;;;;;6247245;23;19903;-72
2022/12/26 13:11:33;;;;;;;;;;;12.00;99.90;;;;;;6246466;23;19907;-73
2022/12/26 13:14:11;;;;;;;;;;;12.10;99.90;;;;;;6247237;23;19931;-72
2022/12/26 13:16:42;;;;;;;;;;;12.10;99.90;;;;;;6246851;23;19899;-72
2022/12/26 13:19:14;;;;;;;;;;;12.10;99.90;;;;;;6247621;23;19978;-73
2022/12/26 13:21:41;;;;;;;;;;;12.10;99.90;;;;;;6247229;23;19985;-74
2022/12/26 13:24:28;;;;;;;;;;;12.30;99.90;;;;;;6247414;22;19903;-72
2022/12/26 13:27:02;;;;;;;;;;;12.50;99.90;;;;;;6246754;23;19896;-72
2022/12/26 13:29:34;;;;;;;;;;;12.50;99.90;;;;;;6247031;23;19938;-74
2022/12/26 13:32:01;;;;;;;;;;;12.50;99.90;;;;;;6246532;22;20382;-73
2022/12/26 13:34:26;;;;;;;;;;;12.70;99.90;;;;;;6247435;23;19930;-73
2022/12/26 13:36:54;;;;;;;;;;;12.60;99.90;;;;;;6246662;23;19910;-72
2022/12/26 13:39:20;;;;;;;;;;;12.40;99.90;;;;;;6246690;23;19899;-72
2022/12/26 13:44:35;;;;;;;;;;;12.10;99.90;;;;;;6246706;23;19946;-74
2022/12/26 13:47:01;;;;;;;;;;;12.00;99.90;;;;;;6246653;23;19900;-72
2022/12/26 13:49:37;;;;;;;;;;;11.90;99.90;;;;;;6246855;23;19903;-74
2022/12/26 13:52:09;;;;;;;;;;;11.90;99.90;;;;;;6246607;23;19924;-73
2022/12/26 13:54:36;;;;;;;;;;;11.80;99.90;;;;;;6246908;23;20211;-75
2022/12/26 13:57:13;;;;;;;;;;;11.80;99.90;;;;;;6246861;23;20271;-74
2022/12/26 13:59:42;;;;;;;;;;;11.80;99.90;;;;;;6246535;23;19904;-73
2022/12/26 14:02:25;;;;;;;;;;;11.70;99.90;;;;;;6247215;23;19900;-74
2022/12/26 14:05:09;;;;;;;;;;;11.70;99.90;;;;;;6246905;23;19938;-71
2022/12/26 14:07:41;;;;;;;;;;;11.70;99.90;;;;;;6247188;23;20222;-71
2022/12/26 14:10:25;;;;;;;;;;;11.60;99.90;;;;;;6246366;23;20333;-72
2022/12/26 14:12:59;;;;;;;;;;;11.70;99.90;;;;;;6247127;23;19900;-74
2022/12/26 14:15:30;;;;;;;;;;;11.60;99.90;;;;;;6246445;23;19904;-72
2022/12/26 14:18:02;;;;;;;;;;;11.60;99.90;;;;;;6246389;23;19949;-73
2022/12/26 14:20:47;;;;;;;;;;;11.50;99.90;;;;;;6246814;23;19900;-70
2022/12/26 14:23:32;;;;;;;;;;;11.50;99.90;;;;;;6247406;23;19907;-72
2022/12/26 14:26:00;;;;;;;;;;;11.60;99.90;;;;;;6248448;22;19899;-73
2022/12/26 14:28:43;;;;;;;;;;;11.50;99.90;;;;;;6249174;23;19899;-72
2022/12/26 14:31:21;;;;;;;;;;;11.40;99.90;;;;;;6248469;23;19935;-71
2022/12/26 14:34:09;;;;;;;;;;;11.40;99.90;;;;;;6249173;23;19986;-72
2022/12/26 14:36:41;;;;;;;;;;;11.40;99.90;;;;;;6247940;23;19906;-73
2022/12/26 14:39:10;;;;;;;;;;;11.40;99.90;;;;;;6248240;23;19915;-72
2022/12/26 14:44:38;;;;;;;;;;;11.30;99.90;;;;;;6248445;23;20289;-71
2022/12/26 14:47:04;;;;;;;;;;;11.30;99.90;;;;;;6248618;23;19900;-71
2022/12/26 14:49:30;;;;;;;;;;;11.20;99.90;;;;;;6248549;23;19911;-73
2022/12/26 14:52:15;;;;;;;;;;;11.10;99.90;;;;;;6248261;23;19900;-72
2022/12/26 14:54:45;;;;;;;;;;;11.20;99.90;;;;;;6248697;23;19906;-72
2022/12/26 14:57:29;;;;;;;;;;;11.10;99.90;;;;;;6248655;23;19903;-72
2022/12/26 15:00:13;;;;;;;;;;;11.10;99.90;;;;;;6248919;23;19906;-73
2022/12/26 15:02:41;;;;;;;;;;;11.00;99.90;;;;;;6248181;23;19900;-74
2022/12/26 15:05:13;;;;;;;;;;;11.00;99.90;;;;;;6248546;23;19954;-71
2022/12/26 15:07:57;;;;;;;;;;;10.80;99.90;;;;;;6248419;23;20333;-73
2022/12/26 15:10:22;;;;;;;;;;;10.80;99.90;;;;;;6247986;23;20023;-73
2022/12/26 15:13:03;;;;;;;;;;;10.80;99.90;;;;;;6248773;23;20269;-73
2022/12/26 15:15:46;;;;;;;;;;;10.80;99.90;;;;;;6248012;23;19903;-71
2022/12/26 15:18:44;;;;;;;;;;;10.60;99.90;;;;;;6248336;23;19903;-73
2022/12/26 15:24:18;;;;;;;;;;;10.50;99.90;;;;;;6247667;22;19914;-73
2022/12/26 15:26:44;;;;;;;;;;;10.30;99.90;;;;;;6220688;23;20241;-73
2022/12/26 15:29:15;;;;;;;;;;;10.30;99.90;;;;;;6248177;23;19899;-72
2022/12/26 15:31:53;;;;;;;;;;;10.30;99.90;;;;;;6247626;23;19966;-70
2022/12/26 15:34:41;;;;;;;;;;;10.20;99.90;;;;;;6247756;23;20318;-72
2022/12/26 15:37:12;;;;;;;;;;;10.10;99.90;;;;;;6248228;23;19903;-72
2022/12/26 15:39:55;;;;;;;;;;;9.90;99.90;;;;;;6247824;23;19900;-72
2022/12/26 15:42:37;;;;;;;;;;;9.90;99.90;;;;;;6248558;23;19900;-74
2022/12/26 15:45:11;;;;;;;;;;;9.80;99.90;;;;;;6248159;23;19930;-72
2022/12/26 15:47:40;;;;;;;;;;;9.70;99.90;;;;;;6248439;23;19907;-71
2022/12/26 15:50:24;;;;;;;;;;;9.60;99.90;;;;;;6247592;23;19911;-72
2022/12/26 15:52:56;;;;;;;;;;;9.40;99.90;;;;;;6247752;23;19899;-71
2022/12/26 15:55:39;;;;;;;;;;;9.10;99.90;;;;;;6248040;23;19931;-73
2022/12/26 15:58:10;;;;;;;;;;;9.00;99.90;;;;;;6247667;23;19899;-72
2022/12/26 16:00:47;;;;;;;;;;;9.10;99.90;;;;;;6248327;23;19900;-72
2022/12/26 16:03:28;;;;;;;;;;;8.80;99.90;;;;;;6247952;23;19910;-72
2022/12/26 16:06:12;;;;;;;;;;;8.80;99.90;;;;;;6247587;23;19906;-71
2022/12/26 16:08:38;;;;;;;;;;;8.80;99.90;;;;;;6247882;23;19922;-73
2022/12/26 16:11:09;;;;;;;;;;;8.80;99.90;;;;;;6247768;23;20271;-71
2022/12/26 16:13:35;;;;;;;;;;;8.80;99.90;;;;;;6247810;23;19900;-73
2022/12/26 16:16:00;;;;;;;;;;;8.70;99.90;;;;;;6247481;23;20318;-72
2022/12/26 16:18:27;;;;;;;;;;;8.50;99.90;;;;;;6247735;23;19979;-72
2022/12/26 16:23:40;;;;;;;;;;;8.30;99.90;;;;;;6247475;23;19905;-73
2022/12/26 16:26:05;;;;;;;;;;;8.10;99.90;;;;;;6247331;22;19899;-71
2022/12/26 16:28:35;;;;;;;;;;;8.00;99.90;;;;;;6248068;23;19906;-72
2022/12/26 16:31:01;;;;;;;;;;;7.80;99.90;;;;;;6247293;23;19935;-73
2022/12/26 16:33:31;;;;;;;;;;;7.70;99.90;;;;;;6246827;23;19942;-72
2022/12/26 16:35:57;;;;;;;;;;;7.60;99.90;;;;;;6247633;23;19899;-72
2022/12/26 16:38:25;;;;;;;;;;;7.40;99.90;;;;;;6247282;23;19904;-72
2022/12/26 16:40:51;;;;;;;;;;;7.30;99.90;;;;;;6247531;23;20234;-72
2022/12/26 16:43:17;;;;;;;;;;;7.20;99.90;;;;;;6247197;23;19906;-71
2022/12/26 16:45:43;;;;;;;;;;;7.10;99.90;;;;;;6247036;23;20318;-71
2022/12/26 16:48:12;;;;;;;;;;;6.90;99.90;;;;;;6247151;23;19935;-73
2022/12/26 16:50:44;;;;;;;;;;;6.80;99.90;;;;;;6246976;23;20082;-72
2022/12/26 16:53:11;;;;;;;;;;;6.80;99.90;;;;;;6247487;23;19900;-72
2022/12/26 16:55:39;;;;;;;;;;;6.90;99.90;;;;;;6247025;23;19899;-72
2022/12/26 16:58:16;;;;;;;;;;;6.90;99.90;;;;;;6247766;23;19977;-72